Time;durP1;ratioP1;P1;durP2;ratioP2;P2;SDS_P1;SDS_P2;PMS_P1;PMS_P2;Temp;Humidity;BMP_temperature;BMP_pressure;BME280_temperature;BME280_humidity;BME280_pressure;Samples;Min_cycle;Max_cycle;Signal;HPM_P1;HPM_P2
2023/01/16 00:00:18;;;;;;;1999.90;999.90;;;6.80;99.90;;;;;;5034818;28;20188;-71
2023/01/16 00:02:43;;;;;;;1999.90;999.90;;;6.80;99.90;;;;;;5034939;28;20195;-71
2023/01/16 00:05:09;;;;;;;1999.90;999.90;;;6.80;99.90;;;;;;5036376;28;20403;-72
2023/01/16 00:07:34;;;;;;;1999.90;999.90;;;6.80;99.90;;;;;;5036398;28;20165;-71
2023/01/16 00:10:00;;;;;;;1999.90;999.90;;;6.70;99.90;;;;;;5036934;28;20223;-71
2023/01/16 00:12:26;;;;;;;1999.90;999.90;;;6.70;99.90;;;;;;5034698;28;20173;-71
2023/01/16 00:14:51;;;;;;;1999.90;999.90;;;6.50;99.90;;;;;;5034651;28;20176;-71
2023/01/16 00:17:17;;;;;;;1999.90;999.90;;;6.60;99.90;;;;;;5034564;28;20191;-71
2023/01/16 00:19:42;;;;;;;1999.90;999.90;;;6.50;99.90;;;;;;5035313;28;20168;-71
2023/01/16 00:22:08;;;;;;;1999.90;999.90;;;6.50;99.90;;;;;;5034626;28;20215;-71
2023/01/16 00:24:33;;;;;;;1999.90;999.90;;;6.40;99.90;;;;;;5034891;28;20165;-72
2023/01/16 00:26:59;;;;;;;1999.90;999.90;;;6.40;99.90;;;;;;5035138;28;20176;-71
2023/01/16 00:29:24;;;;;;;1999.90;999.90;;;6.40;99.90;;;;;;5034455;28;20160;-71
2023/01/16 00:31:50;;;;;;;1999.90;999.90;;;6.30;1.00;;;;;;5034335;28;20689;-71
2023/01/16 00:34:15;;;;;;;1999.90;999.90;;;6.30;1.00;;;;;;5034529;28;20172;-71
2023/01/16 00:36:41;;;;;;;1999.90;999.90;;;6.40;13.30;;;;;;5033452;28;20177;-72
2023/01/16 00:39:07;;;;;;;1999.90;999.90;;;6.40;21.30;;;;;;5034742;28;20172;-71
2023/01/16 00:41:32;;;;;;;1999.90;999.90;;;6.40;87.60;;;;;;5034423;28;20200;-71
2023/01/16 00:43:58;;;;;;;1999.90;999.90;;;6.40;99.90;;;;;;5034362;28;20169;-71
2023/01/16 00:46:25;;;;;;;1999.90;999.90;;;6.40;99.90;;;;;;5034055;28;20172;-71
2023/01/16 00:48:51;;;;;;;1999.90;999.90;;;6.40;99.90;;;;;;5033978;28;20901;-71
2023/01/16 00:51:16;;;;;;;1999.90;999.90;;;6.40;99.90;;;;;;5034093;28;20415;-71
2023/01/16 00:53:42;;;;;;;1999.90;999.90;;;6.30;99.90;;;;;;5034168;28;20247;-71
2023/01/16 00:56:08;;;;;;;1999.90;999.90;;;6.30;99.90;;;;;;5034254;28;20165;-71
2023/01/16 00:58:34;;;;;;;1999.90;999.90;;;6.20;99.90;;;;;;5034010;28;20165;-71
2023/01/16 01:01:00;;;;;;;1999.90;999.90;;;6.20;99.90;;;;;;5034054;28;20445;-71
2023/01/16 01:03:27;;;;;;;1999.90;999.90;;;6.10;99.90;;;;;;5034034;28;20451;-71
2023/01/16 01:05:53;;;;;;;1999.90;999.90;;;6.10;99.90;;;;;;5033871;28;20198;-71
2023/01/16 01:08:19;;;;;;;1999.90;999.90;;;6.10;99.90;;;;;;5033848;28;20408;-71
2023/01/16 01:10:44;;;;;;;1999.90;999.90;;;6.10;99.90;;;;;;5033561;28;20180;-71
2023/01/16 01:13:10;;;;;;;1999.90;999.90;;;6.10;99.90;;;;;;5033843;28;20602;-70
2023/01/16 01:15:36;;;;;;;1999.90;999.90;;;6.10;99.90;;;;;;5033810;28;20191;-70
2023/01/16 01:18:02;;;;;;;1999.90;999.90;;;6.10;99.90;;;;;;5034375;28;20407;-70
2023/01/16 01:20:27;;;;;;;1999.90;999.90;;;6.10;99.90;;;;;;5033472;28;20680;-71
2023/01/16 01:22:53;;;;;;;1999.90;999.90;;;6.10;99.90;;;;;;5033706;28;20204;-70
2023/01/16 01:25:19;;;;;;;1999.90;999.90;;;6.10;99.90;;;;;;5033436;28;20173;-71
2023/01/16 01:27:44;;;;;;;1999.90;999.90;;;6.10;99.90;;;;;;5033388;28;20212;-71
2023/01/16 01:30:10;;;;;;;1999.90;999.90;;;5.90;99.90;;;;;;5032985;28;20172;-71
2023/01/16 01:32:37;;;;;;;1999.90;999.90;;;6.10;99.90;;;;;;5033301;28;20640;-71
2023/01/16 01:35:06;;;;;;;1999.90;999.90;;;6.20;99.90;;;;;;5033352;28;20411;-71
2023/01/16 01:37:33;;;;;;;1999.90;999.90;;;6.30;99.90;;;;;;5033438;28;20900;-71
2023/01/16 01:39:59;;;;;;;1999.90;999.90;;;6.20;99.90;;;;;;5032855;28;20427;-71
2023/01/16 01:42:43;;;;;;;1999.90;999.90;;;6.30;99.90;;;;;;5033003;28;20447;-70
2023/01/16 01:45:24;;;;;;;1999.90;999.90;;;6.30;99.90;;;;;;5033339;28;20168;-72
2023/01/16 01:48:04;;;;;;;1999.90;999.90;;;6.40;99.90;;;;;;5031952;28;20403;-71
2023/01/16 01:50:35;;;;;;;1999.90;999.90;;;6.40;99.90;;;;;;5032812;28;20931;-72
2023/01/16 01:53:08;;;;;;;1999.90;999.90;;;6.40;99.90;;;;;;5033039;28;20407;-70
2023/01/16 01:55:34;;;;;;;1999.90;999.90;;;6.30;99.90;;;;;;5033193;28;20978;-70
2023/01/16 01:58:01;;;;;;;1999.90;999.90;;;6.10;99.90;;;;;;5033159;28;20403;-71
2023/01/16 02:00:28;;;;;;;1999.90;999.90;;;6.00;99.90;;;;;;5033198;28;20541;-71
2023/01/16 02:03:08;;;;;;;1999.90;999.90;;;5.90;1.00;;;;;;5033145;28;20465;-71
2023/01/16 02:05:44;;;;;;;1999.90;999.90;;;5.80;1.00;;;;;;5033384;28;20839;-70
2023/01/16 02:08:14;;;;;;;1999.90;999.90;;;5.80;1.00;;;;;;5033720;28;20395;-71
2023/01/16 02:10:45;;;;;;;1999.90;999.90;;;5.70;1.00;;;;;;5033304;28;20423;-71
2023/01/16 02:13:11;;;;;;;1999.90;999.90;;;5.60;1.00;;;;;;5033526;28;20977;-71
2023/01/16 02:19:15;;;;;;;1999.90;999.90;;;5.40;1.00;;;;;;5033294;28;21050;-72
2023/01/16 02:21:31;;;;;;;1999.90;999.90;;;5.30;1.00;;;;;;5032232;28;20504;-71
2023/01/16 02:24:29;;;;;;;1999.90;999.90;;;5.20;1.00;;;;;;5032317;28;20404;-71
2023/01/16 02:27:26;;;;;;;1999.90;999.90;;;5.10;1.00;;;;;;5032212;28;20533;-71
2023/01/16 02:30:19;;;;;;;1999.90;999.90;;;5.10;1.00;;;;;;5033201;28;20403;-71
2023/01/16 02:32:53;;;;;;;1999.90;999.90;;;5.10;1.00;;;;;;5033257;28;20738;-71
2023/01/16 02:35:27;;;;;;;1999.90;999.90;;;5.00;1.00;;;;;;5033606;28;20399;-71
2023/01/16 02:37:53;;;;;;;1999.90;999.90;;;5.00;1.00;;;;;;5033292;28;20391;-71
2023/01/16 02:40:47;;;;;;;1999.90;999.90;;;4.90;1.00;;;;;;5033035;28;20447;-71
2023/01/16 02:43:19;;;;;;;1999.90;999.90;;;5.00;1.00;;;;;;5034034;28;20200;-72
2023/01/16 02:46:04;;;;;;;1999.90;999.90;;;5.00;1.00;;;;;;5035200;28;20461;-71
2023/01/16 02:48:43;;;;;;;1999.90;999.90;;;5.10;1.00;;;;;;5034598;28;20413;-71
2023/01/16 02:51:29;;;;;;;1999.90;999.90;;;5.20;1.00;;;;;;5034316;28;20415;-71
2023/01/16 02:54:02;;;;;;;1999.90;999.90;;;5.20;1.00;;;;;;5033970;28;20798;-72
2023/01/16 02:56:41;;;;;;;1999.90;999.90;;;5.20;1.00;;;;;;5034824;28;20429;-71
2023/01/16 02:59:10;;;;;;;1999.90;999.90;;;5.20;1.00;;;;;;5035897;28;20405;-72
2023/01/16 03:01:36;;;;;;;1999.90;999.90;;;5.20;1.00;;;;;;5037790;28;20458;-71
2023/01/16 03:04:24;;;;;;;1999.90;999.90;;;5.20;1.00;;;;;;5038267;28;20885;-71
2023/01/16 03:07:00;;;;;;;1999.90;999.90;;;5.10;1.00;;;;;;5037827;28;20183;-71
2023/01/16 03:09:51;;;;;;;1999.90;999.90;;;5.00;1.00;;;;;;5036311;28;20406;-72
2023/01/16 03:12:41;;;;;;;1999.90;999.90;;;5.00;1.00;;;;;;5036557;28;20431;-71
2023/01/16 03:15:36;;;;;;;1999.90;999.90;;;4.90;1.00;;;;;;5036190;28;20418;-71
2023/01/16 03:18:39;;;;;;;1999.90;999.90;;;4.90;1.00;;;;;;5036493;28;20407;-71
2023/01/16 03:21:18;;;;;;;1999.90;999.90;;;4.90;1.00;;;;;;5036476;28;20932;-71
2023/01/16 03:23:55;;;;;;;1999.90;999.90;;;5.00;1.00;;;;;;5036208;28;20410;-71
2023/01/16 03:26:36;;;;;;;1999.90;999.90;;;5.00;1.00;;;;;;5036202;28;20395;-71
2023/01/16 03:29:43;;;;;;;1999.90;999.90;;;5.10;1.00;;;;;;5036266;28;20421;-71
2023/01/16 03:32:26;;;;;;;1999.90;999.90;;;5.20;1.00;;;;;;5036363;28;20439;-72
2023/01/16 03:35:02;;;;;;;1999.90;999.90;;;5.20;1.00;;;;;;5037232;28;20403;-71
2023/01/16 03:37:40;;;;;;;1999.90;999.90;;;5.30;1.00;;;;;;5037178;28;20880;-71
2023/01/16 03:40:09;;;;;;;1999.90;999.90;;;5.40;1.00;;;;;;5037303;28;20430;-72
2023/01/16 03:42:45;;;;;;;1999.90;999.90;;;5.30;1.00;;;;;;5038484;28;20453;-70
2023/01/16 03:45:27;;;;;;;1999.90;999.90;;;5.40;1.00;;;;;;5038334;28;20489;-70
2023/01/16 03:48:10;;;;;;;1999.90;999.90;;;5.40;1.00;;;;;;5037511;28;20989;-70
2023/01/16 03:50:36;;;;;;;1999.90;999.90;;;5.40;1.00;;;;;;5038324;28;20427;-71
2023/01/16 03:53:07;;;;;;;1999.90;999.90;;;5.30;1.00;;;;;;5037632;28;20425;-71
2023/01/16 03:56:04;;;;;;;1999.90;999.90;;;5.30;1.00;;;;;;5037690;28;20419;-72
2023/01/16 03:58:36;;;;;;;1999.90;999.90;;;5.20;1.00;;;;;;5037105;28;20501;-70
2023/01/16 04:01:21;;;;;;;1999.90;999.90;;;5.40;1.00;;;;;;5037149;28;20427;-71
2023/01/16 04:04:07;;;;;;;1999.90;999.90;;;5.10;1.00;;;;;;5037680;28;20414;-72
2023/01/16 04:06:41;;;;;;;1999.90;999.90;;;5.00;1.00;;;;;;5036797;28;20415;-72
2023/01/16 04:09:18;;;;;;;1999.90;999.90;;;4.90;1.00;;;;;;5037098;28;20395;-72
2023/01/16 04:11:44;;;;;;;1999.90;999.90;;;4.90;1.00;;;;;;5036437;28;20430;-71
2023/01/16 04:14:13;;;;;;;1999.90;999.90;;;5.00;1.00;;;;;;5037045;28;20418;-71
2023/01/16 04:16:40;;;;;;;1999.90;999.90;;;4.90;1.00;;;;;;5036849;28;20889;-72
2023/01/16 04:19:09;;;;;;;1999.90;999.90;;;4.80;1.00;;;;;;5037563;28;20478;-71
2023/01/16 04:21:34;;;;;;;1999.90;999.90;;;4.80;1.00;;;;;;5037287;28;20458;-71
2023/01/16 04:24:01;;;;;;;1999.90;999.90;;;4.70;1.00;;;;;;5037052;28;20769;-71
2023/01/16 04:26:26;;;;;;;1999.90;999.90;;;4.80;4.00;;;;;;5037215;28;20188;-71
2023/01/16 04:28:54;;;;;;;1999.90;999.90;;;4.80;8.10;;;;;;5037209;28;20407;-71
2023/01/16 04:31:24;;;;;;;1999.90;999.90;;;4.80;15.10;;;;;;5034743;28;20203;-71
2023/01/16 04:33:50;;;;;;;1999.90;999.90;;;4.80;22.50;;;;;;5034494;28;20410;-71
2023/01/16 04:36:16;;;;;;;1999.90;999.90;;;4.80;27.40;;;;;;5036480;28;20482;-71
2023/01/16 04:38:42;;;;;;;1999.90;999.90;;;4.70;30.80;;;;;;5036514;28;20403;-71
2023/01/16 04:41:07;;;;;;;1999.90;999.90;;;4.80;34.60;;;;;;5035517;28;20516;-71
2023/01/16 04:43:33;;;;;;;1999.90;999.90;;;4.80;43.70;;;;;;5035524;28;20203;-71
2023/01/16 04:45:58;;;;;;;1999.90;999.90;;;4.90;37.90;;;;;;5035084;28;20165;-71
2023/01/16 04:48:24;;;;;;;1999.90;999.90;;;4.90;38.10;;;;;;5034986;28;20168;-71
2023/01/16 04:50:50;;;;;;;1999.90;999.90;;;5.00;39.20;;;;;;5035266;28;20219;-71
2023/01/16 04:53:16;;;;;;;1999.90;999.90;;;5.00;36.90;;;;;;5034998;28;20657;-71
2023/01/16 04:55:41;;;;;;;1999.90;999.90;;;5.00;38.90;;;;;;5035015;28;20243;-71
2023/01/16 04:58:07;;;;;;;1999.90;999.90;;;5.10;34.20;;;;;;5034792;28;20419;-72
2023/01/16 05:00:33;;;;;;;1999.90;999.90;;;5.20;29.00;;;;;;5034782;28;20531;-72
2023/01/16 05:02:58;;;;;;;1999.90;999.90;;;5.20;24.00;;;;;;5034420;28;20208;-71
2023/01/16 05:05:24;;;;;;;1999.90;999.90;;;5.20;20.50;;;;;;5034381;28;20176;-71
2023/01/16 05:08:15;;;;;;;1999.90;999.90;;;5.20;15.70;;;;;;5035155;28;20411;-71
2023/01/16 05:10:35;;;;;;;1999.90;999.90;;;5.30;16.10;;;;;;5034781;28;20199;-72
2023/01/16 05:13:01;;;;;;;1999.90;999.90;;;5.30;8.60;;;;;;5035179;28;20422;-71
2023/01/16 05:15:26;;;;;;;1999.90;999.90;;;5.30;6.20;;;;;;5035230;28;20560;-71
2023/01/16 05:17:54;;;;;;;1999.90;999.90;;;5.30;8.40;;;;;;5038534;28;20198;-72
2023/01/16 05:20:19;;;;;;;1999.90;999.90;;;5.20;10.00;;;;;;5038612;28;20279;-70
2023/01/16 05:22:45;;;;;;;1999.90;999.90;;;5.30;8.70;;;;;;5034849;28;20598;-72
2023/01/16 05:25:10;;;;;;;1999.90;999.90;;;5.30;4.30;;;;;;5034919;28;20192;-72
2023/01/16 05:27:36;;;;;;;1999.90;999.90;;;5.40;1.00;;;;;;5034549;28;20171;-72
2023/01/16 05:30:02;;;;;;;1999.90;999.90;;;5.50;1.00;;;;;;5033990;28;20626;-71
2023/01/16 05:32:28;;;;;;;1999.90;999.90;;;5.40;1.00;;;;;;5034472;28;20251;-71
2023/01/16 05:34:53;;;;;;;1999.90;999.90;;;5.50;1.00;;;;;;5033919;28;20447;-71
2023/01/16 05:37:19;;;;;;;1999.90;999.90;;;5.60;1.00;;;;;;5033871;28;20176;-72
2023/01/16 05:39:46;;;;;;;1999.90;999.90;;;5.60;1.00;;;;;;5033533;28;20203;-72
2023/01/16 05:42:20;;;;;;;1999.90;999.90;;;5.60;1.00;;;;;;5033470;28;20467;-72
2023/01/16 05:44:50;;;;;;;1999.90;999.90;;;5.60;1.00;;;;;;5033143;28;20426;-71
2023/01/16 05:47:17;;;;;;;1999.90;999.90;;;5.70;1.00;;;;;;5032847;28;20774;-71
2023/01/16 05:49:42;;;;;;;1999.90;999.90;;;5.70;1.00;;;;;;5032830;28;20462;-71
2023/01/16 05:52:08;;;;;;;1999.90;999.90;;;5.70;1.00;;;;;;5033285;28;20431;-72
2023/01/16 05:54:33;;;;;;;1999.90;999.90;;;5.70;1.00;;;;;;5033179;28;20184;-71
2023/01/16 05:56:59;;;;;;;1999.90;999.90;;;5.70;1.00;;;;;;5033276;28;20676;-71
2023/01/16 05:59:24;;;;;;;1999.90;999.90;;;5.70;1.00;;;;;;5032641;28;20550;-71
2023/01/16 06:01:50;;;;;;;1999.90;999.90;;;5.80;1.00;;;;;;5032566;28;20283;-71
2023/01/16 06:04:17;;;;;;;1999.90;999.90;;;5.80;1.00;;;;;;5032608;28;20168;-71
2023/01/16 06:06:43;;;;;;;1999.90;999.90;;;5.80;1.00;;;;;;5032505;28;20176;-71
2023/01/16 06:09:08;;;;;;;1999.90;999.90;;;5.90;1.00;;;;;;5032273;28;20923;-71
2023/01/16 06:11:34;;;;;;;1999.90;999.90;;;5.90;1.00;;;;;;5032468;28;20192;-71
2023/01/16 06:14:03;;;;;;;1999.90;999.90;;;5.90;1.00;;;;;;5032443;28;20176;-71
2023/01/16 06:16:29;;;;;;;1999.90;999.90;;;5.90;1.00;;;;;;5032315;28;20164;-71
2023/01/16 06:18:55;;;;;;;1999.90;999.90;;;5.90;1.00;;;;;;5032473;28;20901;-71
2023/01/16 06:21:20;;;;;;;1999.90;999.90;;;5.90;1.00;;;;;;5032242;28;20431;-70
2023/01/16 06:23:46;;;;;;;1999.90;999.90;;;5.90;1.00;;;;;;5032438;28;20602;-70
2023/01/16 06:26:11;;;;;;;1999.90;999.90;;;5.90;1.00;;;;;;5032267;28;20246;-71
2023/01/16 06:28:38;;;;;;;1999.90;999.90;;;5.90;1.00;;;;;;5032319;28;20255;-71
2023/01/16 06:31:05;;;;;;;1999.90;999.90;;;5.90;1.00;;;;;;5032336;28;20310;-71
2023/01/16 06:33:31;;;;;;;1999.90;999.90;;;5.90;1.00;;;;;;5031705;28;20439;-71
2023/01/16 06:35:56;;;;;;;1999.90;999.90;;;5.90;1.00;;;;;;5032019;28;20438;-71
2023/01/16 06:38:22;;;;;;;1999.90;999.90;;;5.90;1.00;;;;;;5032033;28;20199;-71
2023/01/16 06:40:48;;;;;;;1999.90;999.90;;;5.90;1.00;;;;;;5031755;28;20219;-71
2023/01/16 06:43:16;;;;;;;1999.90;999.90;;;5.90;1.00;;;;;;5031915;28;20467;-71
2023/01/16 06:45:42;;;;;;;1999.90;999.90;;;5.90;1.00;;;;;;5032042;28;20183;-71
2023/01/16 06:48:07;;;;;;;1999.90;999.90;;;5.90;1.00;;;;;;5031922;28;20482;-71
2023/01/16 06:50:33;;;;;;;1999.90;999.90;;;5.90;1.00;;;;;;5031713;28;20423;-71
2023/01/16 06:52:59;;;;;;;1999.90;999.90;;;5.90;1.00;;;;;;5031893;28;20499;-71
2023/01/16 06:55:25;;;;;;;1999.90;999.90;;;5.90;1.00;;;;;;5031862;28;20184;-71
2023/01/16 06:57:50;;;;;;;1999.90;999.90;;;5.90;1.00;;;;;;5031772;28;20173;-71
2023/01/16 07:00:16;;;;;;;1999.90;999.90;;;5.90;1.00;;;;;;5031595;28;20206;-71
2023/01/16 07:02:42;;;;;;;1999.90;999.90;;;6.00;1.00;;;;;;5032772;28;20227;-71
2023/01/16 07:05:09;;;;;;;1999.90;999.90;;;6.00;1.00;;;;;;5033292;28;20418;-71
2023/01/16 07:07:35;;;;;;;1999.90;999.90;;;6.00;1.00;;;;;;5031627;28;20196;-71
2023/01/16 07:10:02;;;;;;;1999.90;999.90;;;6.10;1.00;;;;;;5031970;28;20485;-71
2023/01/16 07:12:28;;;;;;;1999.90;999.90;;;6.00;1.00;;;;;;5031764;28;20414;-71
2023/01/16 07:23:33;;;;;;;1999.90;999.90;;;6.10;1.00;;;;;;5032098;28;20457;-71
2023/01/16 07:26:01;;;;;;;1999.90;999.90;;;6.00;1.00;;;;;;5027616;28;20442;-71
2023/01/16 07:28:28;;;;;;;1999.90;999.90;;;6.00;1.00;;;;;;5031919;28;20536;-71
2023/01/16 07:30:56;;;;;;;1999.90;999.90;;;5.90;1.00;;;;;;5031931;28;20434;-71
2023/01/16 07:33:22;;;;;;;1999.90;999.90;;;5.90;1.00;;;;;;5032171;28;20889;-71
2023/01/16 07:35:48;;;;;;;1999.90;999.90;;;5.80;1.00;;;;;;5032476;28;20808;-71
2023/01/16 07:38:13;;;;;;;1999.90;999.90;;;5.80;1.00;;;;;;5032272;28;20173;-71
2023/01/16 07:40:39;;;;;;;1999.90;999.90;;;5.80;1.00;;;;;;5031952;28;20588;-71
2023/01/16 07:43:04;;;;;;;1999.90;999.90;;;5.70;1.00;;;;;;5032071;28;20208;-71
2023/01/16 07:45:30;;;;;;;1999.90;999.90;;;5.70;1.00;;;;;;5034561;28;20174;-72
2023/01/16 07:47:56;;;;;;;1999.90;999.90;;;5.70;1.00;;;;;;5035903;28;20255;-72
2023/01/16 07:50:22;;;;;;;1999.90;999.90;;;5.70;1.00;;;;;;5035800;28;20247;-72
2023/01/16 07:52:47;;;;;;;1999.90;999.90;;;5.70;1.10;;;;;;5035854;28;20434;-71
2023/01/16 07:55:13;;;;;;;1999.90;999.90;;;5.70;1.00;;;;;;5036024;28;20634;-71
2023/01/16 07:57:39;;;;;;;1999.90;999.90;;;5.70;1.00;;;;;;5035439;28;20208;-71
2023/01/16 08:00:12;;;;;;;1999.90;999.90;;;6.10;17.90;;;;;;5035502;28;20437;-71
2023/01/16 08:02:39;;;;;;;1999.90;999.90;;;5.70;1.40;;;;;;5036389;28;20477;-72
2023/01/16 08:05:05;;;;;;;1999.90;999.90;;;5.60;1.00;;;;;;5035653;28;20407;-71
2023/01/16 08:07:31;;;;;;;1999.90;999.90;;;5.60;1.00;;;;;;5035244;28;20409;-72
2023/01/16 08:09:57;;;;;;;1999.90;999.90;;;5.60;24.50;;;;;;5035195;28;20770;-72
2023/01/16 08:12:22;;;;;;;1999.90;999.90;;;5.60;7.50;;;;;;5035532;28;20176;-72
2023/01/16 08:14:48;;;;;;;1999.90;999.90;;;5.60;15.80;;;;;;5035027;28;20176;-71
2023/01/16 08:17:13;;;;;;;1999.90;999.90;;;5.60;17.30;;;;;;5034949;28;20172;-70
2023/01/16 08:19:39;;;;;;;1999.90;999.90;;;5.50;18.50;;;;;;5034818;28;20255;-71
2023/01/16 08:22:04;;;;;;;1999.90;999.90;;;5.50;23.00;;;;;;5034860;28;20307;-71
2023/01/16 08:24:30;;;;;;;1999.90;999.90;;;5.50;26.30;;;;;;5034798;28;20180;-72
2023/01/16 08:26:56;;;;;;;1999.90;999.90;;;5.50;32.50;;;;;;5035080;28;20192;-71
2023/01/16 08:29:23;;;;;;;1999.90;999.90;;;5.50;36.00;;;;;;5035208;28;20549;-70
2023/01/16 08:31:48;;;;;;;1999.90;999.90;;;5.50;45.80;;;;;;5035137;28;20434;-70
2023/01/16 08:34:14;;;;;;;1999.90;999.90;;;5.40;62.00;;;;;;5034900;28;20482;-71
2023/01/16 08:36:40;;;;;;;1999.90;999.90;;;5.30;86.20;;;;;;5034928;28;20263;-71
2023/01/16 08:39:07;;;;;;;1999.90;999.90;;;5.30;95.60;;;;;;5034643;28;20677;-71
2023/01/16 08:52:36;;;;;;;1999.90;999.90;;;5.30;99.90;;;;;;5033950;28;20411;-71
2023/01/16 08:55:02;;;;;;;1999.90;999.90;;;5.30;99.90;;;;;;5034149;28;20411;-71
2023/01/16 08:57:28;;;;;;;1999.90;999.90;;;5.30;99.90;;;;;;5032865;28;20792;-71
2023/01/16 08:59:55;;;;;;;1999.90;999.90;;;5.30;99.90;;;;;;5033165;28;20411;-72
2023/01/16 09:02:20;;;;;;;1999.90;999.90;;;5.50;99.90;;;;;;5032842;28;20535;-71
2023/01/16 09:04:47;;;;;;;1999.90;999.90;;;5.30;99.90;;;;;;5033483;28;20414;-71
2023/01/16 09:07:13;;;;;;;1999.90;999.90;;;5.30;99.90;;;;;;5033814;28;20180;-70
2023/01/16 09:09:40;;;;;;;1999.90;999.90;;;5.30;99.90;;;;;;5032725;28;20408;-71
2023/01/16 09:14:55;;;;;;;1999.90;999.90;;;5.30;99.90;;;;;;5033584;28;20410;-71
2023/01/16 09:17:21;;;;;;;1999.90;999.90;;;5.30;99.90;;;;;;5032965;28;20414;-71
2023/01/16 09:19:47;;;;;;;1999.90;999.90;;;5.30;99.90;;;;;;5032832;28;20447;-71
2023/01/16 09:22:12;;;;;;;1999.90;999.90;;;5.30;99.90;;;;;;5032769;28;20600;-71
2023/01/16 09:24:38;;;;;;;1999.90;999.90;;;5.30;99.90;;;;;;5031253;28;20168;-71
2023/01/16 09:27:04;;;;;;;1999.90;999.90;;;5.30;99.90;;;;;;5032244;28;20171;-71
2023/01/16 09:29:30;;;;;;;1999.90;999.90;;;5.60;99.90;;;;;;5032431;28;20407;-71
2023/01/16 09:31:56;;;;;;;1999.90;999.90;;;5.40;98.70;;;;;;5032568;28;20439;-70
2023/01/16 09:34:22;;;;;;;1999.90;999.90;;;5.30;91.90;;;;;;5032956;28;20619;-70
2023/01/16 09:36:48;;;;;;;1999.90;999.90;;;5.30;84.30;;;;;;5032866;28;20418;-71
2023/01/16 09:39:13;;;;;;;1999.90;999.90;;;5.30;82.60;;;;;;5032399;28;20878;-71
2023/01/16 09:44:44;;;;;;;1999.90;999.90;;;5.40;68.20;;;;;;5032552;28;20258;-71
2023/01/16 09:47:09;;;;;;;1999.90;999.90;;;5.40;72.70;;;;;;5032448;28;20884;-71
2023/01/16 09:49:57;;;;;;;1999.90;999.90;;;5.40;63.20;;;;;;5032190;28;20469;-71
2023/01/16 09:58:35;;;;;;;1999.90;999.90;;;5.50;39.50;;;;;;5031752;28;20908;-70
2023/01/16 10:01:03;;;;;;;1999.90;999.90;;;5.60;32.40;;;;;;5032308;28;20423;-72
2023/01/16 10:03:29;;;;;;;1999.90;999.90;;;5.60;26.80;;;;;;5031446;28;20450;-74
2023/01/16 10:06:07;;;;;;;1999.90;999.90;;;5.60;14.60;;;;;;5031776;28;20790;-74
2023/01/16 10:08:56;;;;;;;1999.90;999.90;;;5.70;6.10;;;;;;5031647;28;20255;-70
2023/01/16 10:11:40;;;;;;;1999.90;999.90;;;5.70;10.30;;;;;;5032544;28;20419;-70
2023/01/16 10:14:31;;;;;;;1999.90;999.90;;;5.80;1.00;;;;;;5033968;28;20395;-69
2023/01/16 10:17:10;;;;;;;1999.90;999.90;;;5.80;1.00;;;;;;5024920;28;20427;-69
2023/01/16 10:19:54;;;;;;;1999.90;999.90;;;5.80;1.00;;;;;;5032392;28;20465;-72
2023/01/16 10:22:31;;;;;;;1999.90;999.90;;;6.00;1.00;;;;;;5032086;28;20959;-72
2023/01/16 10:25:12;;;;;;;1999.90;999.90;;;6.00;1.00;;;;;;5032122;28;20426;-71
2023/01/16 10:27:57;;;;;;;1999.90;999.90;;;6.10;1.00;;;;;;5032221;28;20439;-72
2023/01/16 10:30:35;;;;;;;1999.90;999.90;;;6.10;1.00;;;;;;5032097;28;20510;-72
2023/01/16 10:33:18;;;;;;;1999.90;999.90;;;6.20;1.00;;;;;;5032524;28;20935;-72
2023/01/16 10:35:47;;;;;;;1999.90;999.90;;;6.20;1.00;;;;;;5032105;28;20403;-72
2023/01/16 10:49:59;;;;;;;1999.90;999.90;;;7.00;1.00;;;;;;5038226;28;20402;-72
2023/01/16 10:52:25;;;;;;;1999.90;999.90;;;6.90;1.00;;;;;;5037519;28;20403;-73
2023/01/16 10:54:56;;;;;;;1999.90;999.90;;;7.10;99.90;;;;;;5038297;28;20407;-73
2023/01/16 10:57:22;;;;;;;1999.90;999.90;;;7.10;99.90;;;;;;5037548;28;20925;-71
2023/01/16 10:59:51;;;;;;;1999.90;999.90;;;7.30;99.90;;;;;;5037419;28;20469;-73
2023/01/16 11:02:29;;;;;;;1999.90;999.90;;;7.50;99.90;;;;;;5038546;28;20451;-73
2023/01/16 11:04:55;;;;;;;1999.90;999.90;;;7.50;99.90;;;;;;5036154;28;20399;-71
2023/01/16 11:07:22;;;;;;;1999.90;999.90;;;7.50;99.90;;;;;;5032277;28;20481;-71
2023/01/16 11:09:48;;;;;;;1999.90;999.90;;;7.60;99.90;;;;;;5032266;28;20759;-71
2023/01/16 11:20:45;;;;;;;1999.90;999.90;;;7.90;99.90;;;;;;5034702;28;20431;-71
2023/01/16 11:23:16;;;;;;;1999.90;999.90;;;7.90;99.90;;;;;;5036224;28;20465;-72
2023/01/16 11:25:44;;;;;;;1999.90;999.90;;;7.90;99.90;;;;;;5036234;28;20557;-71
2023/01/16 11:28:18;;;;;;;1999.90;999.90;;;8.00;1.00;;;;;;5035293;28;20407;-71
2023/01/16 11:30:47;;;;;;;1999.90;999.90;;;8.00;1.00;;;;;;5035342;28;20484;-71
2023/01/16 11:33:19;;;;;;;1999.90;999.90;;;8.20;1.00;;;;;;5035862;28;20411;-73
2023/01/16 11:35:55;;;;;;;1999.90;999.90;;;8.20;1.00;;;;;;5035685;28;20440;-71
2023/01/16 11:38:23;;;;;;;1999.90;999.90;;;8.20;1.00;;;;;;5035288;28;20540;-71
2023/01/16 11:40:50;;;;;;;1999.90;999.90;;;8.50;99.90;;;;;;5035200;28;20548;-71
2023/01/16 11:46:21;;;;;;;1999.90;999.90;;;8.50;1.00;;;;;;5035760;28;20394;-71
2023/01/16 11:48:53;;;;;;;1999.90;999.90;;;8.00;5.90;;;;;;5035265;28;20456;-71
2023/01/16 11:51:23;;;;;;;1999.90;999.90;;;7.90;99.90;;;;;;5035353;28;20455;-73
2023/01/16 11:53:50;;;;;;;1999.90;999.90;;;7.70;99.90;;;;;;5035442;28;20410;-71
2023/01/16 11:56:22;;;;;;;1999.90;999.90;;;7.70;99.90;;;;;;5035117;28;20415;-71
2023/01/16 11:58:50;;;;;;;1999.90;999.90;;;7.50;99.90;;;;;;5033783;28;20433;-72
2023/01/16 12:04:36;;;;;;;1999.90;999.90;;;7.40;99.90;;;;;;5022338;28;20461;-72
2023/01/16 12:07:17;;;;;;;1999.90;999.90;;;7.30;99.90;;;;;;5040053;28;20412;-73
2023/01/16 12:10:16;;;;;;;1999.90;999.90;;;7.30;99.90;;;;;;5038694;28;20446;-73
2023/01/16 12:15:42;;;;;;;1999.90;999.90;;;7.30;99.90;;;;;;5038854;28;20390;-71
2023/01/16 12:18:38;;;;;;;1999.90;999.90;;;7.40;99.90;;;;;;5034712;28;20438;-73
2023/01/16 12:21:28;;;;;;;1999.90;999.90;;;7.40;99.90;;;;;;5034498;28;20928;-71
2023/01/16 12:24:05;;;;;;;1999.90;999.90;;;7.50;99.90;;;;;;5034700;28;20773;-71
2023/01/16 12:26:45;;;;;;;1999.90;999.90;;;7.50;99.90;;;;;;5034847;28;20392;-71
2023/01/16 12:29:32;;;;;;;1999.90;999.90;;;7.50;99.90;;;;;;5034289;28;20486;-71
2023/01/16 12:32:33;;;;;;;1999.90;999.90;;;7.50;99.90;;;;;;5033784;28;20799;-72
2023/01/16 12:35:23;;;;;;;1999.90;999.90;;;7.40;99.90;;;;;;5034632;28;20416;-72
2023/01/16 12:38:04;;;;;;;1999.90;999.90;;;7.40;99.90;;;;;;5034512;28;20919;-72
2023/01/16 12:43:17;;;;;;;1999.90;999.90;;;7.30;99.90;;;;;;5033076;28;20493;-71
2023/01/16 12:44:18;;;;;;;1999.90;999.90;;;7.30;99.90;;;;;;5034187;28;21078;-71
2023/01/16 12:47:13;;;;;;;1999.90;999.90;;;7.20;99.90;;;;;;5034232;28;20943;-71
2023/01/16 12:50:03;;;;;;;1999.90;999.90;;;7.20;99.90;;;;;;5034210;28;20393;-72
2023/01/16 12:53:03;;;;;;;1999.90;999.90;;;7.20;99.90;;;;;;5034842;28;21011;-73
2023/01/16 12:55:57;;;;;;;1999.90;999.90;;;7.20;99.90;;;;;;5034631;28;20407;-73
2023/01/16 12:58:28;;;;;;;1999.90;999.90;;;7.20;99.90;;;;;;5038092;28;20399;-73
2023/01/16 13:01:08;;;;;;;1999.90;999.90;;;7.20;99.90;;;;;;5037170;28;20439;-73
2023/01/16 13:03:53;;;;;;;1999.90;999.90;;;7.20;99.90;;;;;;5038122;28;21075;-72
2023/01/16 13:06:34;;;;;;;1999.90;999.90;;;7.20;99.90;;;;;;5037754;28;20395;-73
2023/01/16 13:09:08;;;;;;;1999.90;999.90;;;7.30;99.90;;;;;;5038522;28;20419;-73
2023/01/16 13:14:27;;;;;;;1999.90;999.90;;;7.30;99.90;;;;;;5037936;28;20391;-73
2023/01/16 13:17:05;;;;;;;1999.90;999.90;;;7.30;99.90;;;;;;5038065;28;20395;-73
2023/01/16 13:19:37;;;;;;;1999.90;999.90;;;7.20;99.90;;;;;;5038462;28;20399;-73
2023/01/16 13:22:14;;;;;;;1999.90;999.90;;;7.10;99.90;;;;;;5035413;28;20489;-72
2023/01/16 13:24:49;;;;;;;1999.90;999.90;;;7.00;99.90;;;;;;5034056;28;20545;-72
2023/01/16 13:27:20;;;;;;;1999.90;999.90;;;6.90;99.90;;;;;;5033352;28;20409;-71
2023/01/16 13:29:53;;;;;;;1999.90;999.90;;;6.90;99.90;;;;;;5033528;28;20506;-71
2023/01/16 13:32:33;;;;;;;1999.90;999.90;;;6.90;99.90;;;;;;5033453;28;20440;-71
2023/01/16 13:35:12;;;;;;;1999.90;999.90;;;6.80;1.00;;;;;;5033560;28;20411;-71
2023/01/16 13:37:52;;;;;;;1999.90;999.90;;;6.70;1.00;;;;;;5032994;28;20920;-71
2023/01/16 13:40:36;;;;;;;1999.90;999.90;;;6.70;1.00;;;;;;5033209;28;20939;-71